createdAt,value
2023-03-17T07:14:40.176Z,4.82
2023-03-17T07:15:40.119Z,4.96
2023-03-17T07:16:40.168Z,4.94
2023-03-17T07:17:40.090Z,5.02
2023-03-17T07:18:40.034Z,5.04
2023-03-17T07:19:40.015Z,5.18
2023-03-17T07:20:39.990Z,5.10
2023-03-17T07:21:40.022Z,5.10
2023-03-17T07:22:39.941Z,5.25
2023-03-17T07:23:39.926Z,5.21
2023-03-17T07:24:39.903Z,5.35
2023-03-17T07:25:39.906Z,5.38
2023-03-17T07:26:39.860Z,5.42
2023-03-17T07:27:39.834Z,5.49
2023-03-17T07:28:40.732Z,5.58
2023-03-17T07:29:47.391Z,5.67
2023-03-17T07:30:39.806Z,5.61
2023-03-17T07:31:39.799Z,5.76
2023-03-17T07:32:39.783Z,5.83
2023-03-17T07:33:39.712Z,5.86
2023-03-17T07:34:39.763Z,5.89
2023-03-17T07:35:39.728Z,6.03
2023-03-17T07:36:39.681Z,6.09
2023-03-17T07:37:39.631Z,6.17
2023-03-17T07:38:39.612Z,6.15
2023-03-17T07:39:39.591Z,6.34
2023-03-17T07:40:39.617Z,6.31
2023-03-17T07:41:39.563Z,6.36
2023-03-17T07:42:39.533Z,6.38
2023-03-17T07:43:39.514Z,6.41
2023-03-17T07:44:39.550Z,6.46
2023-03-17T07:45:39.576Z,6.49
2023-03-17T07:46:39.458Z,6.54
2023-03-17T07:47:39.438Z,6.58
2023-03-17T07:48:39.454Z,6.56
2023-03-17T07:49:42.076Z,6.69
2023-03-17T07:50:39.420Z,6.64
2023-03-17T07:51:39.365Z,6.64
2023-03-17T07:52:39.350Z,6.67
2023-03-17T07:53:39.355Z,6.66
2023-03-17T07:54:42.166Z,6.74
2023-03-17T07:55:39.313Z,6.69
2023-03-17T07:56:39.314Z,6.81
2023-03-17T07:57:39.315Z,6.81
2023-03-17T07:58:39.233Z,6.84
2023-03-17T07:59:39.252Z,6.81
2023-03-17T08:00:39.233Z,6.97
2023-03-17T08:01:39.296Z,6.94
2023-03-17T08:02:39.428Z,6.95
2023-03-17T08:03:41.379Z,7.07
2023-03-17T08:04:39.127Z,7.10
2023-03-17T08:05:39.110Z,7.09
2023-03-17T08:06:39.093Z,7.17
2023-03-17T08:07:39.140Z,7.23
2023-03-17T08:08:39.054Z,7.20
2023-03-17T08:09:39.041Z,7.30
2023-03-17T08:10:39.022Z,7.23
2023-03-17T08:11:39.007Z,7.32
2023-03-17T08:12:39.020Z,7.37
2023-03-17T08:13:38.978Z,7.46
2023-03-17T08:14:38.950Z,7.48
2023-03-17T08:15:38.939Z,7.48
2023-03-17T08:16:38.998Z,7.49
2023-03-17T08:17:38.931Z,7.53
2023-03-17T08:18:38.911Z,7.43
2023-03-17T08:19:38.925Z,7.49
2023-03-17T08:20:38.849Z,7.58
2023-03-17T08:21:38.941Z,7.57
2023-03-17T08:22:38.839Z,7.55
2023-03-17T08:23:38.852Z,7.60
2023-03-17T08:24:38.812Z,7.68
2023-03-17T08:25:38.771Z,7.71
2023-03-17T08:26:38.775Z,7.64
2023-03-17T08:27:38.729Z,7.67
2023-03-17T08:28:38.767Z,7.71
2023-03-17T08:29:38.719Z,7.77
2023-03-17T08:30:39.127Z,7.77
2023-03-17T08:31:38.766Z,7.80
2023-03-17T08:32:38.776Z,7.86
2023-03-17T08:33:38.634Z,7.98
2023-03-17T08:34:38.635Z,7.89
2023-03-17T08:35:38.603Z,8.04
2023-03-17T08:36:38.580Z,8.07
2023-03-17T08:37:38.563Z,8.05
2023-03-17T08:38:38.543Z,8.11
2023-03-17T08:39:38.562Z,8.07
2023-03-17T08:40:38.507Z,8.10
2023-03-17T08:41:38.489Z,8.20
2023-03-17T08:42:38.477Z,8.26
2023-03-17T08:43:38.457Z,8.26
2023-03-17T08:44:38.464Z,8.41
2023-03-17T08:45:38.459Z,8.36
2023-03-17T08:46:38.405Z,8.41
2023-03-17T08:47:38.393Z,8.48
2023-03-17T08:48:38.385Z,8.50
2023-03-17T08:49:38.485Z,8.56
2023-03-17T08:50:38.340Z,8.59
2023-03-17T08:51:38.435Z,8.56
2023-03-17T08:52:38.308Z,8.61
2023-03-17T08:53:38.287Z,8.73
2023-03-17T08:54:38.315Z,8.84
2023-03-17T08:55:38.262Z,8.89
2023-03-17T08:56:38.262Z,8.91
2023-03-17T08:57:38.225Z,8.95
2023-03-17T08:58:38.202Z,9.05
2023-03-17T08:59:38.188Z,9.10
2023-03-17T09:00:38.171Z,9.15
2023-03-17T09:01:38.200Z,9.23
2023-03-17T09:02:38.271Z,9.39
2023-03-17T09:03:38.134Z,9.42
2023-03-17T09:04:40.072Z,9.46
2023-03-17T09:05:38.681Z,9.60
2023-03-17T09:06:39.630Z,9.61
2023-03-17T09:07:38.167Z,9.79
2023-03-17T09:08:38.086Z,9.83
2023-03-17T09:09:38.031Z,9.99
2023-03-17T09:10:38.026Z,10.05
2023-03-17T09:11:38.027Z,10.05
2023-03-17T09:12:38.013Z,10.14
2023-03-17T09:13:37.968Z,10.27
2023-03-17T09:14:43.808Z,10.36
2023-03-17T09:15:37.994Z,10.32
2023-03-17T09:16:37.994Z,10.48
2023-03-17T09:17:37.910Z,10.45
2023-03-17T09:18:37.902Z,10.61
2023-03-17T09:19:37.881Z,10.64
2023-03-17T09:20:37.873Z,10.73
2023-03-17T09:21:37.901Z,10.68
2023-03-17T09:22:37.852Z,10.84
2023-03-17T09:23:37.827Z,10.82
2023-03-17T09:24:37.809Z,10.91
2023-03-17T09:25:37.801Z,11.02
2023-03-17T09:26:37.781Z,11.04
2023-03-17T09:27:37.812Z,11.25
2023-03-17T09:28:37.753Z,11.25
2023-03-17T09:29:37.756Z,11.36
2023-03-17T09:30:37.733Z,11.36
2023-03-17T09:31:37.732Z,11.36
2023-03-17T09:32:37.774Z,11.46
2023-03-17T09:33:37.722Z,11.49
2023-03-17T09:34:37.714Z,11.60
2023-03-17T09:35:37.702Z,11.58
2023-03-17T09:36:37.655Z,11.64
2023-03-17T09:37:37.641Z,11.62
2023-03-17T09:38:37.622Z,11.75
2023-03-17T09:39:37.645Z,11.76
2023-03-17T09:40:37.642Z,11.79
2023-03-17T09:41:37.583Z,11.96
2023-03-17T09:42:37.571Z,11.96
2023-03-17T09:43:37.562Z,12.07
2023-03-17T09:44:37.550Z,12.10
2023-03-17T09:45:37.611Z,12.20
2023-03-17T09:46:37.614Z,12.29
2023-03-17T09:47:37.536Z,12.19
2023-03-17T09:48:37.498Z,12.20
2023-03-17T09:49:37.504Z,12.27
2023-03-17T09:50:37.475Z,12.29
2023-03-17T09:51:37.487Z,12.35
2023-03-17T09:52:37.442Z,12.39
2023-03-17T09:53:37.441Z,12.41
2023-03-17T09:54:37.453Z,12.49
2023-03-17T09:55:37.413Z,12.54
2023-03-17T09:56:37.398Z,12.50
2023-03-17T09:57:37.386Z,12.57
2023-03-17T09:58:37.385Z,12.54
2023-03-17T09:59:37.400Z,12.53
2023-03-17T10:00:37.347Z,12.52
2023-03-17T10:01:37.383Z,12.54
2023-03-17T10:02:37.320Z,12.52
2023-03-17T10:03:37.308Z,12.59
2023-03-17T10:04:37.294Z,12.60
2023-03-17T10:05:37.330Z,12.67
2023-03-17T10:06:37.285Z,12.71
2023-03-17T10:07:37.260Z,12.72
2023-03-17T10:08:37.248Z,12.71
2023-03-17T10:09:37.255Z,12.79
2023-03-17T10:10:37.224Z,12.67
2023-03-17T10:11:37.219Z,12.75
2023-03-17T10:12:37.203Z,12.72
2023-03-17T10:13:37.193Z,12.85
2023-03-17T10:14:37.190Z,12.85
2023-03-17T10:15:37.176Z,12.75
2023-03-17T10:16:37.230Z,12.83
2023-03-17T10:17:37.133Z,12.83
2023-03-17T10:18:37.140Z,12.93
2023-03-17T10:19:37.114Z,12.89
2023-03-17T10:20:37.121Z,13.01
2023-03-17T10:21:37.093Z,13.05
2023-03-17T10:22:37.101Z,13.19
2023-03-17T10:23:37.066Z,13.42
2023-03-17T10:24:37.048Z,13.49
2023-03-17T10:25:37.086Z,13.57
2023-03-17T10:26:37.044Z,13.69
2023-03-17T10:27:37.011Z,13.75
2023-03-17T10:28:37.003Z,13.79
2023-03-17T10:29:36.995Z,13.85
2023-03-17T10:30:36.976Z,13.84
2023-03-17T10:31:37.003Z,13.88
2023-03-17T10:32:37.005Z,13.95
2023-03-17T10:33:36.937Z,13.87
2023-03-17T10:34:38.100Z,14.00
2023-03-17T10:35:36.985Z,13.95
2023-03-17T10:36:36.900Z,14.06
2023-03-17T10:37:36.987Z,14.12
2023-03-17T10:38:36.889Z,14.18
2023-03-17T10:39:36.868Z,14.25
2023-03-17T10:40:36.861Z,14.29
2023-03-17T10:41:36.862Z,14.39
2023-03-17T10:42:36.860Z,14.36
2023-03-17T10:43:36.841Z,14.39
2023-03-17T10:44:36.809Z,14.25
2023-03-17T10:45:39.105Z,14.29
2023-03-17T10:46:36.805Z,14.35
2023-03-17T10:47:36.808Z,14.21
2023-03-17T10:48:36.766Z,14.28
2023-03-17T10:49:36.764Z,14.37
2023-03-17T10:50:36.750Z,14.52
2023-03-17T10:51:36.772Z,14.58
2023-03-17T10:52:36.725Z,14.73
2023-03-17T10:53:36.706Z,14.80
2023-03-17T10:54:36.697Z,14.78
2023-03-17T10:55:36.685Z,14.72
2023-03-17T10:56:36.709Z,14.61
2023-03-17T10:57:36.680Z,14.61
2023-03-17T10:58:36.658Z,14.58
2023-03-17T10:59:36.645Z,14.52
2023-03-17T11:00:36.734Z,14.43
2023-03-17T11:01:36.625Z,14.65
2023-03-17T11:02:36.627Z,14.58
2023-03-17T11:03:36.649Z,14.57
2023-03-17T11:04:36.591Z,14.46
2023-03-17T11:05:38.332Z,14.47
2023-03-17T11:06:36.585Z,14.57
2023-03-17T11:07:36.568Z,14.46
2023-03-17T11:08:36.576Z,14.61
2023-03-17T11:09:36.562Z,14.60
2023-03-17T11:10:36.553Z,14.61
2023-03-17T11:11:36.521Z,14.57
2023-03-17T11:12:36.592Z,14.58
2023-03-17T11:13:36.512Z,14.75
2023-03-17T11:14:36.550Z,14.77
2023-03-17T11:15:36.472Z,14.81
2023-03-17T11:16:36.529Z,14.94
2023-03-17T11:17:36.454Z,15.02
2023-03-17T11:18:36.441Z,15.03
2023-03-17T11:19:36.432Z,15.32
2023-03-17T11:20:36.449Z,15.35
2023-03-17T11:21:36.413Z,15.36
2023-03-17T11:22:36.406Z,15.23
2023-03-17T11:23:36.394Z,15.35
2023-03-17T11:24:36.414Z,15.35
2023-03-17T11:25:36.408Z,15.36
2023-03-17T11:26:36.362Z,15.44
2023-03-17T11:27:36.354Z,15.51
2023-03-17T11:28:36.337Z,15.54
2023-03-17T11:29:36.333Z,15.47
2023-03-17T11:30:36.336Z,15.62
2023-03-17T11:31:36.369Z,15.67
2023-03-17T11:32:36.323Z,15.69
2023-03-17T11:33:36.290Z,15.82
2023-03-17T11:34:36.278Z,15.78
2023-03-17T11:35:36.305Z,15.96
2023-03-17T11:36:36.280Z,15.94
2023-03-17T11:37:36.272Z,15.93
2023-03-17T11:38:36.239Z,15.86
2023-03-17T11:39:36.227Z,15.71
2023-03-17T11:40:36.211Z,15.62
2023-03-17T11:41:36.230Z,15.50
2023-03-17T11:42:36.186Z,15.60
2023-03-17T11:43:36.234Z,15.60
2023-03-17T11:44:36.182Z,15.68
2023-03-17T11:45:36.207Z,15.78
2023-03-17T11:46:36.147Z,15.83
2023-03-17T11:47:36.133Z,15.84
2023-03-17T11:48:36.132Z,15.92
2023-03-17T11:49:36.114Z,16.07
2023-03-17T11:50:36.129Z,16.14
2023-03-17T11:51:36.126Z,16.35
2023-03-17T11:52:36.081Z,16.33
2023-03-17T11:53:36.083Z,16.35
2023-03-17T11:54:36.061Z,16.38
2023-03-17T11:55:36.085Z,16.45
2023-03-17T11:56:36.044Z,16.39
2023-03-17T11:57:36.031Z,16.43
2023-03-17T11:58:36.016Z,16.34
2023-03-17T11:59:36.037Z,16.28
2023-03-17T12:00:36.006Z,16.31
2023-03-17T12:01:36.021Z,16.30
2023-03-17T12:02:35.979Z,16.23
2023-03-17T12:03:36.009Z,16.08
2023-03-17T12:04:35.990Z,15.96
2023-03-17T12:05:35.944Z,15.93
2023-03-17T12:06:35.965Z,15.93
2023-03-17T12:07:35.947Z,15.92
2023-03-17T12:08:35.919Z,15.94
2023-03-17T12:09:35.904Z,16.00
2023-03-17T12:10:35.897Z,16.05
2023-03-17T12:11:35.895Z,16.08
2023-03-17T12:12:35.904Z,16.17
2023-03-17T12:13:35.861Z,16.21
2023-03-17T12:14:35.852Z,16.07
2023-03-17T12:15:35.865Z,16.07
2023-03-17T12:16:35.836Z,16.08
2023-03-17T12:17:35.884Z,16.08
2023-03-17T12:18:35.814Z,16.11
2023-03-17T12:19:35.801Z,16.24
2023-03-17T12:20:35.794Z,16.30
2023-03-17T12:21:35.780Z,16.53
2023-03-17T12:22:35.795Z,16.57
2023-03-17T12:23:35.787Z,16.79
2023-03-17T12:24:35.754Z,16.83
2023-03-17T12:25:35.740Z,17.03
2023-03-17T12:26:35.730Z,17.01
2023-03-17T12:27:35.745Z,17.11
2023-03-17T12:28:35.758Z,17.08
2023-03-17T12:29:35.710Z,17.01
2023-03-17T12:30:35.690Z,17.07
2023-03-17T12:31:35.711Z,17.15
2023-03-17T12:32:35.695Z,17.41
2023-03-17T12:33:35.669Z,17.55
2023-03-17T12:34:35.704Z,17.64
2023-03-17T12:35:35.656Z,17.63
2023-03-17T12:36:35.653Z,17.52
2023-03-17T12:37:35.639Z,17.54
2023-03-17T12:38:35.638Z,17.33
2023-03-17T12:39:35.607Z,17.15
2023-03-17T12:40:35.599Z,17.15
2023-03-17T12:41:35.591Z,17.21
2023-03-17T12:42:35.578Z,17.31
2023-03-17T12:43:35.593Z,17.21
2023-03-17T12:44:35.558Z,17.28
2023-03-17T12:45:35.544Z,17.33
2023-03-17T12:46:35.592Z,17.19
2023-03-17T12:47:35.526Z,17.16
2023-03-17T12:48:35.559Z,17.19
2023-03-17T12:49:35.516Z,17.08
2023-03-17T12:50:35.514Z,17.08
2023-03-17T12:51:38.379Z,17.04
2023-03-17T12:52:35.488Z,17.04
2023-03-17T12:53:35.465Z,17.01
2023-03-17T12:54:35.504Z,17.11
2023-03-17T12:55:35.458Z,17.19
2023-03-17T12:56:35.446Z,17.08
2023-03-17T12:57:35.430Z,17.12
2023-03-17T12:58:35.418Z,17.25
2023-03-17T12:59:35.413Z,17.31
2023-03-17T13:00:35.429Z,17.49
2023-03-17T13:01:35.417Z,17.63
2023-03-17T13:02:35.397Z,17.77
2023-03-17T13:03:35.423Z,17.92
2023-03-17T13:04:35.365Z,17.89
2023-03-17T13:05:35.383Z,18.02
2023-03-17T13:06:35.339Z,17.97
2023-03-17T13:07:35.328Z,17.99
2023-03-17T13:08:35.322Z,18.12
2023-03-17T13:09:35.311Z,18.07
2023-03-17T13:10:35.330Z,17.96
2023-03-17T13:11:35.295Z,17.99
2023-03-17T13:12:35.281Z,17.84
2023-03-17T13:13:35.276Z,17.84
2023-03-17T13:14:35.273Z,17.84
2023-03-17T13:15:35.298Z,17.77
2023-03-17T13:16:35.371Z,17.78
2023-03-17T13:17:35.241Z,17.72
2023-03-17T13:18:35.253Z,17.70
2023-03-17T13:19:35.217Z,17.56
2023-03-17T13:20:35.209Z,17.56
2023-03-17T13:21:36.552Z,17.62
2023-03-17T13:22:35.196Z,17.63
2023-03-17T13:23:35.184Z,17.62
2023-03-17T13:24:35.167Z,17.66
2023-03-17T13:25:35.155Z,17.56
2023-03-17T13:26:35.196Z,17.64
2023-03-17T13:27:35.139Z,17.55
2023-03-17T13:28:35.131Z,17.59
2023-03-17T13:29:35.121Z,17.62
2023-03-17T13:30:35.119Z,17.56
2023-03-17T13:31:35.244Z,17.56
2023-03-17T13:32:35.166Z,17.51
2023-03-17T13:33:35.098Z,17.52
2023-03-17T13:34:35.093Z,17.38
2023-03-17T13:35:35.110Z,17.41
2023-03-17T13:36:35.085Z,17.43
2023-03-17T13:37:35.094Z,17.41
2023-03-17T13:38:35.044Z,17.33
2023-03-17T13:39:35.021Z,17.28
2023-03-17T13:40:35.015Z,17.31
2023-03-17T13:41:35.006Z,17.28
2023-03-17T13:42:35.016Z,17.43
2023-03-17T13:43:35.007Z,17.31
2023-03-17T13:44:34.971Z,17.44
2023-03-17T13:45:34.964Z,17.31
2023-03-17T13:46:34.988Z,17.34
2023-03-17T13:47:34.981Z,17.43
2023-03-17T13:48:34.939Z,17.31
2023-03-17T13:49:34.920Z,17.28
2023-03-17T13:50:34.910Z,17.30
2023-03-17T13:51:34.901Z,17.33
2023-03-17T13:52:34.940Z,17.40
2023-03-17T13:53:34.889Z,17.44
2023-03-17T13:54:34.882Z,17.52
2023-03-17T13:55:35.134Z,17.51
2023-03-17T13:56:34.848Z,17.46
2023-03-17T13:57:34.844Z,17.56
2023-03-17T13:58:34.855Z,17.55
2023-03-17T13:59:34.822Z,17.62
2023-03-17T14:00:34.828Z,17.66
2023-03-17T14:01:34.799Z,17.64
2023-03-17T14:02:34.788Z,17.71
2023-03-17T14:03:34.848Z,17.78
2023-03-17T14:04:34.772Z,17.81
2023-03-17T14:05:34.755Z,17.75
2023-03-17T14:06:34.746Z,17.78
2023-03-17T14:07:34.738Z,17.82
2023-03-17T14:08:34.762Z,17.92
2023-03-17T14:09:34.726Z,18.02
2023-03-17T14:10:34.706Z,18.03
2023-03-17T14:11:34.694Z,18.08
2023-03-17T14:12:34.688Z,18.14
2023-03-17T14:13:34.710Z,18.20
2023-03-17T14:14:34.668Z,18.20
2023-03-17T14:15:35.414Z,18.23
2023-03-17T14:16:34.731Z,18.11
2023-03-17T14:17:34.633Z,18.00
2023-03-17T14:18:34.630Z,18.08
2023-03-17T14:19:34.644Z,18.18
2023-03-17T14:20:34.611Z,18.27
2023-03-17T14:21:34.601Z,18.25
2023-03-17T14:22:34.587Z,18.26
2023-03-17T14:23:42.431Z,18.26
2023-03-17T14:24:34.621Z,18.35
2023-03-17T14:25:34.570Z,18.25
2023-03-17T14:26:34.550Z,18.36
2023-03-17T14:27:34.540Z,18.44
2023-03-17T14:28:34.535Z,18.54
2023-03-17T14:29:34.521Z,18.57
2023-03-17T14:30:34.515Z,18.51
2023-03-17T14:31:34.533Z,18.52
2023-03-17T14:32:34.531Z,18.39
2023-03-17T14:33:34.490Z,18.42
2023-03-17T14:34:34.502Z,18.32
2023-03-17T14:35:34.482Z,18.33
2023-03-17T14:36:34.469Z,18.44
2023-03-17T14:37:34.444Z,18.37
2023-03-17T14:38:34.437Z,18.41
2023-03-17T14:39:34.452Z,18.42
2023-03-17T14:40:34.419Z,18.44
2023-03-17T14:41:34.416Z,18.47
2023-03-17T14:42:34.416Z,18.39
2023-03-17T14:43:34.396Z,18.37
2023-03-17T14:44:34.381Z,18.39
2023-03-17T14:45:34.804Z,18.33
2023-03-17T14:46:34.371Z,18.45
2023-03-17T14:47:34.356Z,18.42
2023-03-17T14:48:34.365Z,18.39
2023-03-17T14:49:34.385Z,18.30
2023-03-17T14:50:34.330Z,18.23
2023-03-17T14:51:34.317Z,18.25
2023-03-17T14:52:34.309Z,18.20
2023-03-17T14:53:34.297Z,18.08
2023-03-17T14:54:34.308Z,18.15
2023-03-17T14:55:34.349Z,18.17
2023-03-17T14:56:34.276Z,18.11
2023-03-17T14:57:34.268Z,17.99
2023-03-17T14:58:34.251Z,18.08
2023-03-17T14:59:34.248Z,17.95
2023-03-17T15:00:34.297Z,17.99
2023-03-17T15:01:35.003Z,17.96
2023-03-17T15:02:34.471Z,17.93
2023-03-17T15:03:34.228Z,17.90
2023-03-17T15:04:34.208Z,17.96
2023-03-17T15:05:34.182Z,18.00
2023-03-17T15:06:36.857Z,17.86
2023-03-17T15:07:34.192Z,17.89
2023-03-17T15:08:36.213Z,17.77
2023-03-17T15:09:34.186Z,17.82
2023-03-17T15:10:34.490Z,17.89
2023-03-17T15:11:34.127Z,17.71
2023-03-17T15:12:34.143Z,17.63
2023-03-17T15:13:34.120Z,17.56
2023-03-17T15:14:34.095Z,17.59
2023-03-17T15:15:34.108Z,17.46
2023-03-17T15:16:34.217Z,17.59
2023-03-17T15:17:34.071Z,17.56
2023-03-17T15:18:34.058Z,17.48
2023-03-17T15:19:34.045Z,17.43
2023-03-17T15:20:34.183Z,17.37
2023-03-17T15:21:34.024Z,17.34
2023-03-17T15:22:34.016Z,17.34
2023-03-17T15:23:34.008Z,17.34
2023-03-17T15:24:34.030Z,17.28
2023-03-17T15:25:33.991Z,17.31
2023-03-17T15:26:33.972Z,17.28
2023-03-17T15:27:33.961Z,17.18
2023-03-17T15:28:33.958Z,17.11
2023-03-17T15:29:33.948Z,16.97
2023-03-17T15:30:46.184Z,17.07
2023-03-17T15:31:33.950Z,16.97
2023-03-17T15:32:33.946Z,16.93
2023-03-17T15:33:33.903Z,16.83
2023-03-17T15:34:33.887Z,16.82
2023-03-17T15:35:33.895Z,16.68
2023-03-17T15:36:33.917Z,16.71
2023-03-17T15:37:33.854Z,16.58
2023-03-17T15:38:33.886Z,16.50
2023-03-17T15:39:33.842Z,16.50
2023-03-17T15:40:33.874Z,16.50
2023-03-17T15:41:33.855Z,16.45
2023-03-17T15:42:33.803Z,16.41
2023-03-17T15:43:33.784Z,16.34
2023-03-17T15:44:33.773Z,16.31
2023-03-17T15:45:33.776Z,16.31
2023-03-17T15:46:33.914Z,16.38
2023-03-17T15:47:33.792Z,16.38
2023-03-17T15:48:33.729Z,16.25
2023-03-17T15:49:33.737Z,16.27
2023-03-17T15:50:34.225Z,16.27
2023-03-17T15:51:33.694Z,16.23
2023-03-17T15:52:33.684Z,16.15
2023-03-17T15:53:33.678Z,16.05
2023-03-17T15:54:33.653Z,16.11
2023-03-17T15:55:33.688Z,16.04
2023-03-17T15:56:33.628Z,16.01
2023-03-17T15:57:33.618Z,15.92
2023-03-17T15:58:33.632Z,15.90
2023-03-17T15:59:33.638Z,15.93
2023-03-17T16:00:34.013Z,15.92
2023-03-17T16:01:33.627Z,15.89
2023-03-17T16:02:33.553Z,15.82
2023-03-17T16:03:33.557Z,15.82
2023-03-17T16:04:33.565Z,15.82
2023-03-17T16:05:33.572Z,15.80
2023-03-17T16:06:33.505Z,15.76
2023-03-17T16:07:33.519Z,15.72
2023-03-17T16:08:33.479Z,15.60
2023-03-17T16:09:33.470Z,15.67
2023-03-17T16:10:33.916Z,15.62
2023-03-17T16:11:33.442Z,15.57
2023-03-17T16:12:33.428Z,15.49
2023-03-17T16:13:33.420Z,15.47
2023-03-17T16:14:33.430Z,15.46
2023-03-17T16:15:33.414Z,15.41
2023-03-17T16:16:33.379Z,15.43
2023-03-17T16:17:33.399Z,15.35
2023-03-17T16:18:33.367Z,15.34
2023-03-17T16:19:33.369Z,15.25
2023-03-17T16:20:33.823Z,15.29
2023-03-17T16:21:33.356Z,15.19
2023-03-17T16:22:33.303Z,15.20
2023-03-17T16:23:35.349Z,15.16
2023-03-17T16:24:33.303Z,15.14
2023-03-17T16:25:33.267Z,15.10
2023-03-17T16:26:33.322Z,15.16
2023-03-17T16:27:33.242Z,15.09
2023-03-17T16:28:33.223Z,15.07
2023-03-17T16:29:33.221Z,15.03
2023-03-17T16:30:33.674Z,15.03
2023-03-17T16:31:33.226Z,14.91
2023-03-17T16:32:33.235Z,14.94
2023-03-17T16:33:33.194Z,14.91
2023-03-17T16:34:33.148Z,14.94
2023-03-17T16:35:33.216Z,14.81
2023-03-17T16:36:33.176Z,14.78
2023-03-17T16:37:33.109Z,14.86
2023-03-17T16:38:33.097Z,14.78
2023-03-17T16:39:33.109Z,14.83
2023-03-17T16:40:33.181Z,14.73
2023-03-17T16:41:33.062Z,14.78
2023-03-17T16:42:33.053Z,14.69
2023-03-17T16:43:33.030Z,14.64
2023-03-17T16:44:33.073Z,14.62
2023-03-17T16:45:33.025Z,14.65
2023-03-17T16:46:34.842Z,14.45
2023-03-17T16:47:33.014Z,14.57
2023-03-17T16:48:32.963Z,14.55
2023-03-17T16:49:32.961Z,14.57
2023-03-17T16:50:33.463Z,14.45
2023-03-17T16:51:32.923Z,14.46
2023-03-17T16:52:32.939Z,14.47
2023-03-17T16:53:32.897Z,14.45
2023-03-17T16:54:32.887Z,14.35
2023-03-17T16:55:32.872Z,14.40
2023-03-17T16:56:32.909Z,14.36
2023-03-17T16:57:32.847Z,14.25
2023-03-17T16:58:32.834Z,14.25
2023-03-17T16:59:32.849Z,14.18
2023-03-17T17:00:33.199Z,14.12
2023-03-17T17:01:32.822Z,14.20
2023-03-17T17:02:32.785Z,14.06
2023-03-17T17:03:32.764Z,14.03
2023-03-17T17:04:32.795Z,13.91
2023-03-17T17:05:32.767Z,13.88
2023-03-17T17:06:32.794Z,13.85
2023-03-17T17:07:32.715Z,13.85
2023-03-17T17:08:32.740Z,13.79
2023-03-17T17:09:32.729Z,13.82
2023-03-17T17:10:32.952Z,13.81
2023-03-17T17:11:32.663Z,13.81
2023-03-17T17:12:32.643Z,13.71
2023-03-17T17:13:32.638Z,13.79
2023-03-17T17:14:32.643Z,13.73
2023-03-17T17:15:32.604Z,13.77
2023-03-17T17:16:32.683Z,13.73
2023-03-17T17:17:32.579Z,13.59
2023-03-17T17:18:32.567Z,13.59
2023-03-17T17:19:32.548Z,13.57
2023-03-17T17:20:32.865Z,13.63
2023-03-17T17:21:32.570Z,13.55
2023-03-17T17:22:32.513Z,13.54
2023-03-17T17:23:32.497Z,13.57
2023-03-17T17:24:32.496Z,13.60
2023-03-17T17:25:32.870Z,13.54
2023-03-17T17:26:32.454Z,13.54
2023-03-17T17:27:32.505Z,13.49
2023-03-17T17:28:32.425Z,13.44
2023-03-17T17:29:32.616Z,13.41
2023-03-17T17:30:32.838Z,13.39
2023-03-17T17:31:32.429Z,13.46
2023-03-17T17:32:32.381Z,13.42
2023-03-17T17:33:32.361Z,13.42
2023-03-17T17:34:32.356Z,13.46
2023-03-17T17:35:32.906Z,13.36
2023-03-17T17:36:32.321Z,13.45
2023-03-17T17:37:32.320Z,13.32
2023-03-17T17:38:32.337Z,13.39
2023-03-17T17:39:32.288Z,13.33
2023-03-17T17:40:32.495Z,13.30
2023-03-17T17:41:32.717Z,13.28
2023-03-17T17:42:32.260Z,13.26
2023-03-17T17:43:32.234Z,13.12
2023-03-17T17:44:32.203Z,13.15
2023-03-17T17:45:32.190Z,13.10
2023-03-17T17:46:32.189Z,13.08
2023-03-17T17:47:32.477Z,13.14
2023-03-17T17:48:32.152Z,13.00
2023-03-17T17:49:32.134Z,13.00
2023-03-17T17:50:32.375Z,13.04
2023-03-17T17:51:32.102Z,13.10
2023-03-17T17:52:32.114Z,13.12
2023-03-17T17:53:32.086Z,13.11
2023-03-17T17:54:32.062Z,12.95
2023-03-17T17:55:32.043Z,13.01
2023-03-17T17:56:32.036Z,12.97
2023-03-17T17:57:32.019Z,12.83
2023-03-17T17:58:32.033Z,12.82
2023-03-17T17:59:31.992Z,12.68
2023-03-17T18:00:32.412Z,12.72
2023-03-17T18:01:32.001Z,12.68
2023-03-17T18:02:31.942Z,12.71
2023-03-17T18:03:32.264Z,12.65
2023-03-17T18:04:32.008Z,12.68
2023-03-17T18:05:31.907Z,12.64
2023-03-17T18:06:31.885Z,12.59
2023-03-17T18:07:31.872Z,12.60
2023-03-17T18:08:31.884Z,12.46
2023-03-17T18:09:32.082Z,12.41
2023-03-17T18:10:32.100Z,12.41
2023-03-17T18:11:31.819Z,12.37
2023-03-17T18:12:31.804Z,12.47
2023-03-17T18:13:31.818Z,12.41
2023-03-17T18:14:31.798Z,12.42
2023-03-17T18:15:31.755Z,12.37
2023-03-17T18:16:31.756Z,12.32
2023-03-17T18:17:32.626Z,12.39
2023-03-17T18:18:31.713Z,12.45
2023-03-17T18:19:31.697Z,12.42
2023-03-17T18:20:31.958Z,12.37
2023-03-17T18:21:31.668Z,12.35
2023-03-17T18:22:31.653Z,12.23
2023-03-17T18:23:31.641Z,12.29
2023-03-17T18:24:31.627Z,12.16
2023-03-17T18:25:31.642Z,12.16
2023-03-17T18:26:31.623Z,12.13
2023-03-17T18:27:31.581Z,12.19
2023-03-17T18:28:31.571Z,12.12
2023-03-17T18:29:31.553Z,12.19
2023-03-17T18:30:31.942Z,12.12
2023-03-17T18:31:31.620Z,12.13
2023-03-17T18:32:31.520Z,12.21
2023-03-17T18:33:31.496Z,12.14
2023-03-17T18:34:31.483Z,12.12
2023-03-17T18:35:31.500Z,11.98
2023-03-17T18:36:31.458Z,11.94
2023-03-17T18:37:31.444Z,11.96
2023-03-17T18:38:31.659Z,11.98
2023-03-17T18:39:31.408Z,11.94
2023-03-17T18:40:31.393Z,11.94
2023-03-17T18:41:31.449Z,11.94
2023-03-17T18:42:31.365Z,11.98
2023-03-17T18:43:31.349Z,11.98
2023-03-17T18:44:31.334Z,11.91
2023-03-17T18:45:31.322Z,11.95
2023-03-17T18:46:31.310Z,11.99
2023-03-17T18:47:31.294Z,12.01
2023-03-17T18:48:31.359Z,11.99
2023-03-17T18:49:31.266Z,12.07
2023-03-17T18:50:31.543Z,12.05
2023-03-17T18:51:31.232Z,11.98
2023-03-17T18:52:31.225Z,11.98
2023-03-17T18:53:31.216Z,12.01
2023-03-17T18:54:31.189Z,11.91
2023-03-17T18:55:31.181Z,11.90
2023-03-17T18:56:31.162Z,11.98
2023-03-17T18:57:31.181Z,11.94
2023-03-17T18:58:31.155Z,11.96
2023-03-17T18:59:31.122Z,11.95
2023-03-17T19:00:31.321Z,11.96
2023-03-17T19:01:31.137Z,11.91
2023-03-17T19:02:31.069Z,11.99
2023-03-17T19:03:31.217Z,11.96
2023-03-17T19:04:31.044Z,11.94
2023-03-17T19:05:31.026Z,11.95
2023-03-17T19:06:31.018Z,11.95
2023-03-17T19:07:30.995Z,11.99
2023-03-17T19:08:30.979Z,11.90
2023-03-17T19:09:30.969Z,11.91
2023-03-17T19:10:31.245Z,11.98
2023-03-17T19:11:30.934Z,11.88
2023-03-17T19:12:30.932Z,11.88
2023-03-17T19:13:30.919Z,11.91
2023-03-17T19:14:30.890Z,11.90
2023-03-17T19:15:30.876Z,11.85
2023-03-17T19:16:30.954Z,11.88
2023-03-17T19:17:30.874Z,11.86
2023-03-17T19:18:30.831Z,11.82
2023-03-17T19:19:30.816Z,11.76
2023-03-17T19:20:31.051Z,11.86
2023-03-17T19:21:30.788Z,11.83
2023-03-17T19:22:30.817Z,11.90
2023-03-17T19:23:30.757Z,11.76
2023-03-17T19:24:30.741Z,11.83
2023-03-17T19:25:30.740Z,11.91
2023-03-17T19:26:30.712Z,11.73
2023-03-17T19:27:30.697Z,11.88
2023-03-17T19:28:30.717Z,11.72
2023-03-17T19:29:30.675Z,11.83
2023-03-17T19:30:31.093Z,11.78
2023-03-17T19:31:30.637Z,11.75
2023-03-17T19:32:30.649Z,11.64
2023-03-17T19:33:30.611Z,11.61
2023-03-17T19:34:30.595Z,11.69
2023-03-17T19:35:30.578Z,11.70
2023-03-17T19:36:30.563Z,11.65
2023-03-17T19:37:30.550Z,11.64
2023-03-17T19:38:30.560Z,11.57
2023-03-17T19:39:30.523Z,11.47
2023-03-17T19:40:30.739Z,11.57
2023-03-17T19:41:30.490Z,11.46
2023-03-17T19:42:30.475Z,11.44
2023-03-17T19:43:40.404Z,11.46
2023-03-17T19:44:30.471Z,11.49
2023-03-17T19:45:30.438Z,11.49
2023-03-17T19:46:30.416Z,11.47
2023-03-17T19:47:30.399Z,11.52
2023-03-17T19:48:30.446Z,11.55
2023-03-17T19:49:30.381Z,11.57
2023-03-17T19:50:30.645Z,11.49
2023-03-17T19:51:30.340Z,11.47
2023-03-17T19:52:30.323Z,11.35
2023-03-17T19:53:30.309Z,11.32
2023-03-17T19:54:30.329Z,11.33
2023-03-17T19:55:30.623Z,11.40
2023-03-17T19:56:30.263Z,11.40
2023-03-17T19:57:30.251Z,11.40
2023-03-17T19:58:30.242Z,11.44
2023-03-17T19:59:30.275Z,11.40
2023-03-17T20:00:30.519Z,11.42
2023-03-17T20:01:30.287Z,11.40
2023-03-17T20:02:30.177Z,11.43
2023-03-17T20:03:30.159Z,11.35
2023-03-17T20:04:30.194Z,11.42
2023-03-17T20:05:30.153Z,11.47
2023-03-17T20:06:30.114Z,11.49
2023-03-17T20:07:30.174Z,11.46
2023-03-17T20:08:30.085Z,11.44
2023-03-17T20:09:30.095Z,11.44
2023-03-17T20:10:30.422Z,11.33